Aladdin, Wyoming
Current Conditions -  °F | °C
As of 8:35 PM on Saturday 22 Nov 2014 (Local Time) from KSPF Reporting Station
Unknown Precip Unknown Precip  
Wind Chill: 26°   Ceiling: 3600
Heat Index: 36°   Visibility: 3mi
Dew Point: 32°   Wind: 16mph
Humidity: 87%   Direction: 310°NW
Pressure: 29.52"   Gusts: 32mph
Location:  44.64°N, 104.18°W
Report Text: KSPF 230335Z AUTO 31014G28KT 3SM UP FEW019 SCT027 BKN036 02/00 A2952 RMK AO2 P0011
Loading
Personal Weather Stations






























Interactive Weather Map New forecast layout! Learn more

10-Day Weather Forecast

Advertisements
Track Severe Weather on mobile